sensor_id;sensor_type;location;lat;lon;timestamp;pressure;altitude;pressure_sealevel;temperature
62107;BMP280;48087;32.600;-97.100;2022-09-16T00:04:05;;;;30.55525
62107;BMP280;48087;32.600;-97.100;2022-09-16T00:09:08;;;;29.833035000000002
62107;BMP280;48087;32.600;-97.100;2022-09-16T00:14:13;;;;29.221929999999997
62107;BMP280;48087;32.600;-97.100;2022-09-16T00:19:16;;;;28.666379999999997
62107;BMP280;48087;32.600;-97.100;2022-09-16T00:24:22;;;;28.277495000000002
62107;BMP280;48087;32.600;-97.100;2022-09-16T00:29:25;;;;27.833054999999995
62107;BMP280;48087;32.600;-97.100;2022-09-16T00:34:28;;;;27.610835
62107;BMP280;48087;32.600;-97.100;2022-09-16T00:39:32;;;;27.388614999999998
62107;BMP280;48087;32.600;-97.100;2022-09-16T00:44:53;;;;27.055285
62107;BMP280;48087;32.600;-97.100;2022-09-16T00:49:40;;;;26.77751
62107;BMP280;48087;32.600;-97.100;2022-09-16T00:54:45;;;;26.6664
62107;BMP280;48087;32.600;-97.100;2022-09-16T00:59:49;;;;26.444179999999996
62107;BMP280;48087;32.600;-97.100;2022-09-16T01:04:55;;;;26.333070000000003
62107;BMP280;48087;32.600;-97.100;2022-09-16T01:09:57;;;;26.22196
62107;BMP280;48087;32.600;-97.100;2022-09-16T01:15:01;;;;25.99974
62107;BMP280;48087;32.600;-97.100;2022-09-16T01:20:09;;;;25.721964999999997
62107;BMP280;48087;32.600;-97.100;2022-09-16T01:25:10;;;;25.499745000000004
62107;BMP280;48087;32.600;-97.100;2022-09-16T01:30:17;;;;25.221970000000002
62107;BMP280;48087;32.600;-97.100;2022-09-16T01:35:19;;;;25.277525
62107;BMP280;48087;32.600;-97.100;2022-09-16T01:40:21;;;;25.44419
62107;BMP280;48087;32.600;-97.100;2022-09-16T01:45:27;;;;25.44419
62107;BMP280;48087;32.600;-97.100;2022-09-16T01:50:29;;;;25.333079999999995
62107;BMP280;48087;32.600;-97.100;2022-09-16T01:55:34;;;;25.277525
62107;BMP280;48087;32.600;-97.100;2022-09-16T02:00:36;;;;25.166414999999997
62107;BMP280;48087;32.600;-97.100;2022-09-16T02:05:44;;;;24.88864
62107;BMP280;48087;32.600;-97.100;2022-09-16T02:10:45;;;;24.610864999999997
62107;BMP280;48087;32.600;-97.100;2022-09-16T02:15:49;;;;24.166425
62107;BMP280;48087;32.600;-97.100;2022-09-16T02:20:53;;;;23.77754
62107;BMP280;48087;32.600;-97.100;2022-09-16T02:25:57;;;;23.44421
62107;BMP280;48087;32.600;-97.100;2022-09-16T02:31:02;;;;23.221989999999998
62107;BMP280;48087;32.600;-97.100;2022-09-16T02:36:05;;;;23.555320000000002
62107;BMP280;48087;32.600;-97.100;2022-09-16T02:41:09;;;;23.610875
62107;BMP280;48087;32.600;-97.100;2022-09-16T02:46:15;;;;23.666429999999995
62107;BMP280;48087;32.600;-97.100;2022-09-16T02:51:31;;;;23.721985
62107;BMP280;48087;32.600;-97.100;2022-09-16T02:56:37;;;;23.499764999999996
62107;BMP280;48087;32.600;-97.100;2022-09-16T03:01:41;;;;23.44421
62107;BMP280;48087;32.600;-97.100;2022-09-16T03:06:45;;;;23.44421
62107;BMP280;48087;32.600;-97.100;2022-09-16T03:11:52;;;;23.499764999999996
62107;BMP280;48087;32.600;-97.100;2022-09-16T03:16:54;;;;23.555320000000002
62107;BMP280;48087;32.600;-97.100;2022-09-16T03:21:59;;;;23.666429999999995
62107;BMP280;48087;32.600;-97.100;2022-09-16T03:27:02;;;;23.610875
62107;BMP280;48087;32.600;-97.100;2022-09-16T03:32:06;;;;23.555320000000002
62107;BMP280;48087;32.600;-97.100;2022-09-16T03:37:09;;;;23.555320000000002
62107;BMP280;48087;32.600;-97.100;2022-09-16T03:42:13;;;;23.44421
62107;BMP280;48087;32.600;-97.100;2022-09-16T03:47:16;;;;23.44421
62107;BMP280;48087;32.600;-97.100;2022-09-16T03:52:20;;;;23.44421
62107;BMP280;48087;32.600;-97.100;2022-09-16T03:57:24;;;;23.388654999999996
62107;BMP280;48087;32.600;-97.100;2022-09-16T04:02:28;;;;23.221989999999998
62107;BMP280;48087;32.600;-97.100;2022-09-16T04:07:32;;;;22.99977
62107;BMP280;48087;32.600;-97.100;2022-09-16T04:12:37;;;;22.99977
62107;BMP280;48087;32.600;-97.100;2022-09-16T04:17:40;;;;22.944214999999996
62107;BMP280;48087;32.600;-97.100;2022-09-16T04:22:44;;;;22.88866
62107;BMP280;48087;32.600;-97.100;2022-09-16T04:27:49;;;;22.833104999999996
62107;BMP280;48087;32.600;-97.100;2022-09-16T04:32:52;;;;22.833104999999996
62107;BMP280;48087;32.600;-97.100;2022-09-16T04:37:56;;;;22.777549999999998
62107;BMP280;48087;32.600;-97.100;2022-09-16T04:42:59;;;;22.833104999999996
62107;BMP280;48087;32.600;-97.100;2022-09-16T04:48:05;;;;23.110879999999998
62107;BMP280;48087;32.600;-97.100;2022-09-16T04:53:08;;;;23.166435
62107;BMP280;48087;32.600;-97.100;2022-09-16T04:58:13;;;;23.055325
62107;BMP280;48087;32.600;-97.100;2022-09-16T05:03:15;;;;22.88866
62107;BMP280;48087;32.600;-97.100;2022-09-16T05:08:20;;;;23.110879999999998
62107;BMP280;48087;32.600;-97.100;2022-09-16T05:13:23;;;;23.166435
62107;BMP280;48087;32.600;-97.100;2022-09-16T05:18:28;;;;23.166435
62107;BMP280;48087;32.600;-97.100;2022-09-16T05:23:32;;;;23.055325
62107;BMP280;48087;32.600;-97.100;2022-09-16T05:28:37;;;;22.944214999999996
62107;BMP280;48087;32.600;-97.100;2022-09-16T05:33:40;;;;22.777549999999998
62107;BMP280;48087;32.600;-97.100;2022-09-16T05:38:45;;;;22.721995000000003
62107;BMP280;48087;32.600;-97.100;2022-09-16T05:43:47;;;;22.666439999999998
62107;BMP280;48087;32.600;-97.100;2022-09-16T05:48:52;;;;22.555329999999998
62107;BMP280;48087;32.600;-97.100;2022-09-16T05:53:55;;;;22.222
62107;BMP280;48087;32.600;-97.100;2022-09-16T05:59:00;;;;21.999779999999998
62107;BMP280;48087;32.600;-97.100;2022-09-16T06:04:04;;;;21.944225
62107;BMP280;48087;32.600;-97.100;2022-09-16T06:09:09;;;;21.944225
62107;BMP280;48087;32.600;-97.100;2022-09-16T06:14:11;;;;21.88867
62107;BMP280;48087;32.600;-97.100;2022-09-16T06:19:16;;;;21.88867
62107;BMP280;48087;32.600;-97.100;2022-09-16T06:24:19;;;;21.833115
62107;BMP280;48087;32.600;-97.100;2022-09-16T06:29:24;;;;21.88867
62107;BMP280;48087;32.600;-97.100;2022-09-16T06:34:27;;;;21.944225
62107;BMP280;48087;32.600;-97.100;2022-09-16T06:39:33;;;;21.77756
62107;BMP280;48087;32.600;-97.100;2022-09-16T06:44:35;;;;21.555339999999998
62107;BMP280;48087;32.600;-97.100;2022-09-16T06:49:40;;;;21.499785000000003
62107;BMP280;48087;32.600;-97.100;2022-09-16T06:54:43;;;;21.444229999999997
62107;BMP280;48087;32.600;-97.100;2022-09-16T06:59:48;;;;21.444229999999997
62107;BMP280;48087;32.600;-97.100;2022-09-16T07:04:52;;;;21.277565
62107;BMP280;48087;32.600;-97.100;2022-09-16T07:09:55;;;;20.944235000000003
62107;BMP280;48087;32.600;-97.100;2022-09-16T07:15:00;;;;20.888679999999997
62107;BMP280;48087;32.600;-97.100;2022-09-16T07:20:04;;;;20.944235000000003
62107;BMP280;48087;32.600;-97.100;2022-09-16T07:25:08;;;;20.777570000000004
62107;BMP280;48087;32.600;-97.100;2022-09-16T07:30:11;;;;20.66646
62107;BMP280;48087;32.600;-97.100;2022-09-16T07:35:16;;;;20.777570000000004
62107;BMP280;48087;32.600;-97.100;2022-09-16T07:40:19;;;;20.777570000000004
62107;BMP280;48087;32.600;-97.100;2022-09-16T07:45:23;;;;20.722015
62107;BMP280;48087;32.600;-97.100;2022-09-16T07:50:27;;;;20.777570000000004
62107;BMP280;48087;32.600;-97.100;2022-09-16T07:55:33;;;;20.777570000000004
62107;BMP280;48087;32.600;-97.100;2022-09-16T08:00:35;;;;20.944235000000003
62107;BMP280;48087;32.600;-97.100;2022-09-16T08:05:40;;;;21.055345000000003
62107;BMP280;48087;32.600;-97.100;2022-09-16T08:10:43;;;;21.055345000000003
62107;BMP280;48087;32.600;-97.100;2022-09-16T08:15:48;;;;20.999789999999997
62107;BMP280;48087;32.600;-97.100;2022-09-16T08:20:51;;;;21.055345000000003
62107;BMP280;48087;32.600;-97.100;2022-09-16T08:25:55;;;;21.1109
62107;BMP280;48087;32.600;-97.100;2022-09-16T08:30:59;;;;21.166454999999996
62107;BMP280;48087;32.600;-97.100;2022-09-16T08:36:04;;;;21.22201
62107;BMP280;48087;32.600;-97.100;2022-09-16T08:41:14;;;;21.22201
62107;BMP280;48087;32.600;-97.100;2022-09-16T08:46:13;;;;21.166454999999996
62107;BMP280;48087;32.600;-97.100;2022-09-16T08:51:16;;;;21.1109
62107;BMP280;48087;32.600;-97.100;2022-09-16T08:56:20;;;;21.055345000000003
62107;BMP280;48087;32.600;-97.100;2022-09-16T09:01:25;;;;21.055345000000003
62107;BMP280;48087;32.600;-97.100;2022-09-16T09:06:33;;;;21.166454999999996
62107;BMP280;48087;32.600;-97.100;2022-09-16T09:11:34;;;;21.166454999999996
62107;BMP280;48087;32.600;-97.100;2022-09-16T09:16:36;;;;21.055345000000003
62107;BMP280;48087;32.600;-97.100;2022-09-16T09:21:40;;;;20.999789999999997
62107;BMP280;48087;32.600;-97.100;2022-09-16T09:26:45;;;;20.888679999999997
62107;BMP280;48087;32.600;-97.100;2022-09-16T09:31:50;;;;20.722015
62107;BMP280;48087;32.600;-97.100;2022-09-16T09:36:55;;;;20.55535
62107;BMP280;48087;32.600;-97.100;2022-09-16T09:41:57;;;;20.499795000000002
62107;BMP280;48087;32.600;-97.100;2022-09-16T09:47:00;;;;20.388685000000002
62107;BMP280;48087;32.600;-97.100;2022-09-16T09:52:04;;;;20.222020000000004
62107;BMP280;48087;32.600;-97.100;2022-09-16T09:57:10;;;;20.055354999999995
62107;BMP280;48087;32.600;-97.100;2022-09-16T10:02:13;;;;19.888689999999997
62107;BMP280;48087;32.600;-97.100;2022-09-16T10:07:16;;;;19.777579999999997
62107;BMP280;48087;32.600;-97.100;2022-09-16T10:12:27;;;;19.610915
62107;BMP280;48087;32.600;-97.100;2022-09-16T10:17:22;;;;19.499804999999995
62107;BMP280;48087;32.600;-97.100;2022-09-16T10:22:27;;;;19.55536
62107;BMP280;48087;32.600;-97.100;2022-09-16T10:27:32;;;;19.44425
62107;BMP280;48087;32.600;-97.100;2022-09-16T10:32:38;;;;19.333139999999997
62107;BMP280;48087;32.600;-97.100;2022-09-16T10:37:39;;;;19.166475
62107;BMP280;48087;32.600;-97.100;2022-09-16T10:42:45;;;;19.055365
62107;BMP280;48087;32.600;-97.100;2022-09-16T10:47:47;;;;19.055365
62107;BMP280;48087;32.600;-97.100;2022-09-16T10:52:51;;;;18.99981
62107;BMP280;48087;32.600;-97.100;2022-09-16T10:58:05;;;;18.944254999999995
62107;BMP280;48087;32.600;-97.100;2022-09-16T11:03:10;;;;18.944254999999995
62107;BMP280;48087;32.600;-97.100;2022-09-16T11:08:05;;;;18.944254999999995
62107;BMP280;48087;32.600;-97.100;2022-09-16T11:13:12;;;;18.833145000000002
62107;BMP280;48087;32.600;-97.100;2022-09-16T11:18:15;;;;18.944254999999995
62107;BMP280;48087;32.600;-97.100;2022-09-16T11:23:18;;;;18.944254999999995
62107;BMP280;48087;32.600;-97.100;2022-09-16T11:28:35;;;;19.110920000000004
62107;BMP280;48087;32.600;-97.100;2022-09-16T11:33:24;;;;18.99981
62107;BMP280;48087;32.600;-97.100;2022-09-16T11:38:28;;;;18.8887
62107;BMP280;48087;32.600;-97.100;2022-09-16T11:43:36;;;;18.944254999999995
62107;BMP280;48087;32.600;-97.100;2022-09-16T11:48:37;;;;18.777589999999996
62107;BMP280;48087;32.600;-97.100;2022-09-16T11:53:42;;;;18.722035
62107;BMP280;48087;32.600;-97.100;2022-09-16T11:58:44;;;;18.722035
62107;BMP280;48087;32.600;-97.100;2022-09-16T12:03:47;;;;18.777589999999996
62107;BMP280;48087;32.600;-97.100;2022-09-16T12:08:52;;;;18.722035
62107;BMP280;48087;32.600;-97.100;2022-09-16T12:13:56;;;;18.722035
62107;BMP280;48087;32.600;-97.100;2022-09-16T12:19:00;;;;18.777589999999996
62107;BMP280;48087;32.600;-97.100;2022-09-16T12:24:04;;;;18.777589999999996
62107;BMP280;48087;32.600;-97.100;2022-09-16T12:29:09;;;;18.777589999999996
62107;BMP280;48087;32.600;-97.100;2022-09-16T12:34:10;;;;18.944254999999995
62107;BMP280;48087;32.600;-97.100;2022-09-16T12:39:15;;;;18.99981
62107;BMP280;48087;32.600;-97.100;2022-09-16T12:44:23;;;;19.055365
62107;BMP280;48087;32.600;-97.100;2022-09-16T12:50:37;;;;19.222029999999997
62107;BMP280;48087;32.600;-97.100;2022-09-16T12:54:32;;;;19.333139999999997
62107;BMP280;48087;32.600;-97.100;2022-09-16T12:59:35;;;;19.833135000000002
62107;BMP280;48087;32.600;-97.100;2022-09-16T13:04:36;;;;20.944235000000003
62107;BMP280;48087;32.600;-97.100;2022-09-16T13:09:39;;;;21.999779999999998
62107;BMP280;48087;32.600;-97.100;2022-09-16T13:14:43;;;;22.944214999999996
62107;BMP280;48087;32.600;-97.100;2022-09-16T13:19:48;;;;23.333099999999998
62107;BMP280;48087;32.600;-97.100;2022-09-16T13:24:52;;;;24.110870000000002
62107;BMP280;48087;32.600;-97.100;2022-09-16T13:30:29;;;;24.610864999999997
62107;BMP280;48087;32.600;-97.100;2022-09-16T13:35:00;;;;25.166414999999997
62107;BMP280;48087;32.600;-97.100;2022-09-16T13:40:15;;;;25.44419
62107;BMP280;48087;32.600;-97.100;2022-09-16T13:45:28;;;;25.44419
62107;BMP280;48087;32.600;-97.100;2022-09-16T13:50:11;;;;25.833075
62107;BMP280;48087;32.600;-97.100;2022-09-16T13:55:17;;;;25.610854999999997
62107;BMP280;48087;32.600;-97.100;2022-09-16T14:00:18;;;;25.666410000000003
62107;BMP280;48087;32.600;-97.100;2022-09-16T14:05:25;;;;25.944185
62107;BMP280;48087;32.600;-97.100;2022-09-16T14:10:28;;;;25.944185
62107;BMP280;48087;32.600;-97.100;2022-09-16T14:15:33;;;;25.944185
62107;BMP280;48087;32.600;-97.100;2022-09-16T14:20:35;;;;26.277514999999998
62107;BMP280;48087;32.600;-97.100;2022-09-16T14:25:40;;;;26.22196
62107;BMP280;48087;32.600;-97.100;2022-09-16T14:30:45;;;;26.721954999999998
62107;BMP280;48087;32.600;-97.100;2022-09-16T14:35:46;;;;27.055285
62107;BMP280;48087;32.600;-97.100;2022-09-16T14:40:50;;;;26.833064999999998
62107;BMP280;48087;32.600;-97.100;2022-09-16T14:45:54;;;;26.999729999999996
62107;BMP280;48087;32.600;-97.100;2022-09-16T14:50:59;;;;27.166395
62107;BMP280;48087;32.600;-97.100;2022-09-16T14:56:02;;;;27.33306
62107;BMP280;48087;32.600;-97.100;2022-09-16T15:01:06;;;;27.388614999999998
62107;BMP280;48087;32.600;-97.100;2022-09-16T15:06:10;;;;27.833054999999995
62107;BMP280;48087;32.600;-97.100;2022-09-16T15:13:07;;;;27.7775
62107;BMP280;48087;32.600;-97.100;2022-09-16T15:18:19;;;;28.277495000000002
62107;BMP280;48087;32.600;-97.100;2022-09-16T15:23:18;;;;28.33305
62107;BMP280;48087;32.600;-97.100;2022-09-16T15:28:20;;;;28.555270000000004
62107;BMP280;48087;32.600;-97.100;2022-09-16T15:33:25;;;;28.555270000000004
62107;BMP280;48087;32.600;-97.100;2022-09-16T15:38:28;;;;28.721935000000002
62107;BMP280;48087;32.600;-97.100;2022-09-16T15:43:33;;;;28.99971
62107;BMP280;48087;32.600;-97.100;2022-09-16T15:48:41;;;;28.833045000000002
62107;BMP280;48087;32.600;-97.100;2022-09-16T15:53:41;;;;29.110820000000004
62107;BMP280;48087;32.600;-97.100;2022-09-16T15:58:45;;;;29.166375
62107;BMP280;48087;32.600;-97.100;2022-09-16T16:03:49;;;;29.666370000000004
62107;BMP280;48087;32.600;-97.100;2022-09-16T16:08:51;;;;29.721925
62107;BMP280;48087;32.600;-97.100;2022-09-16T16:13:54;;;;29.833035000000002
62107;BMP280;48087;32.600;-97.100;2022-09-16T16:18:58;;;;30.277475
62107;BMP280;48087;32.600;-97.100;2022-09-16T16:24:02;;;;30.22192
62107;BMP280;48087;32.600;-97.100;2022-09-16T16:29:06;;;;30.721915
62107;BMP280;48087;32.600;-97.100;2022-09-16T16:34:10;;;;30.277475
62107;BMP280;48087;32.600;-97.100;2022-09-16T16:39:14;;;;30.055254999999995
62107;BMP280;48087;32.600;-97.100;2022-09-16T16:44:18;;;;30.721915
62107;BMP280;48087;32.600;-97.100;2022-09-16T16:49:22;;;;31.055245000000003
62107;BMP280;48087;32.600;-97.100;2022-09-16T16:54:26;;;;31.388575
62107;BMP280;48087;32.600;-97.100;2022-09-16T16:59:29;;;;31.166354999999996
62107;BMP280;48087;32.600;-97.100;2022-09-16T17:04:34;;;;31.666349999999998
62107;BMP280;48087;32.600;-97.100;2022-09-16T17:09:37;;;;31.666349999999998
62107;BMP280;48087;32.600;-97.100;2022-09-16T17:14:42;;;;32.2219
62107;BMP280;48087;32.600;-97.100;2022-09-16T17:19:46;;;;32.2219
62107;BMP280;48087;32.600;-97.100;2022-09-16T17:24:50;;;;32.277454999999996
62107;BMP280;48087;32.600;-97.100;2022-09-16T17:29:54;;;;32.2219
62107;BMP280;48087;32.600;-97.100;2022-09-16T17:34:57;;;;32.444120000000005
62107;BMP280;48087;32.600;-97.100;2022-09-16T17:40:01;;;;32.944115
62107;BMP280;48087;32.600;-97.100;2022-09-16T17:45:06;;;;32.944115
62107;BMP280;48087;32.600;-97.100;2022-09-16T17:50:09;;;;33.610775
62107;BMP280;48087;32.600;-97.100;2022-09-16T17:55:14;;;;33.721885
62107;BMP280;48087;32.600;-97.100;2022-09-16T18:00:17;;;;33.666329999999995
62107;BMP280;48087;32.600;-97.100;2022-09-16T18:05:22;;;;32.88856
62107;BMP280;48087;32.600;-97.100;2022-09-16T18:10:25;;;;32.77745
62107;BMP280;48087;32.600;-97.100;2022-09-16T18:15:30;;;;33.44411
62107;BMP280;48087;32.600;-97.100;2022-09-16T18:20:33;;;;33.77744
62107;BMP280;48087;32.600;-97.100;2022-09-16T18:25:37;;;;33.388555
62107;BMP280;48087;32.600;-97.100;2022-09-16T18:30:41;;;;32.555229999999995
62107;BMP280;48087;32.600;-97.100;2022-09-16T18:35:46;;;;33.555220000000006
62107;BMP280;48087;32.600;-97.100;2022-09-16T18:40:49;;;;33.77744
62107;BMP280;48087;32.600;-97.100;2022-09-16T18:45:54;;;;33.499665
62107;BMP280;48087;32.600;-97.100;2022-09-16T18:50:57;;;;34.4441
62107;BMP280;48087;32.600;-97.100;2022-09-16T18:56:01;;;;34.721875
62107;BMP280;48087;32.600;-97.100;2022-09-16T19:01:06;;;;35.388535
62107;BMP280;48087;32.600;-97.100;2022-09-16T19:06:09;;;;35.66631
62107;BMP280;48087;32.600;-97.100;2022-09-16T19:11:13;;;;35.277425
62107;BMP280;48087;32.600;-97.100;2022-09-16T19:16:17;;;;35.166315
62107;BMP280;48087;32.600;-97.100;2022-09-16T19:21:21;;;;34.22188
62107;BMP280;48087;32.600;-97.100;2022-09-16T19:26:25;;;;34.777429999999995
62107;BMP280;48087;32.600;-97.100;2022-09-16T19:31:29;;;;35.277425
62107;BMP280;48087;32.600;-97.100;2022-09-16T19:36:33;;;;35.610755
62107;BMP280;48087;32.600;-97.100;2022-09-16T19:41:37;;;;35.5552
62107;BMP280;48087;32.600;-97.100;2022-09-16T19:46:41;;;;35.499645
62107;BMP280;48087;32.600;-97.100;2022-09-16T19:51:45;;;;35.11076
62107;BMP280;48087;32.600;-97.100;2022-09-16T19:56:49;;;;33.88855
62107;BMP280;48087;32.600;-97.100;2022-09-16T20:01:53;;;;34.4441
62107;BMP280;48087;32.600;-97.100;2022-09-16T20:06:58;;;;34.610765
62107;BMP280;48087;32.600;-97.100;2022-09-16T20:12:00;;;;35.66631
62107;BMP280;48087;32.600;-97.100;2022-09-16T20:17:06;;;;35.77742
62107;BMP280;48087;32.600;-97.100;2022-09-16T20:22:08;;;;36.499635
62107;BMP280;48087;32.600;-97.100;2022-09-16T20:27:14;;;;35.77742
62107;BMP280;48087;32.600;-97.100;2022-09-16T20:32:17;;;;34.832985
62107;BMP280;48087;32.600;-97.100;2022-09-16T20:37:21;;;;33.99966
62107;BMP280;48087;32.600;-97.100;2022-09-16T20:42:24;;;;34.721875
62107;BMP280;48087;32.600;-97.100;2022-09-16T20:47:30;;;;35.610755
62107;BMP280;48087;32.600;-97.100;2022-09-16T20:52:32;;;;35.721865
62107;BMP280;48087;32.600;-97.100;2022-09-16T20:57:37;;;;35.721865
62107;BMP280;48087;32.600;-97.100;2022-09-16T21:02:41;;;;34.388545
62107;BMP280;48087;32.600;-97.100;2022-09-16T21:07:45;;;;34.721875
62107;BMP280;48087;32.600;-97.100;2022-09-16T21:12:49;;;;35.499645
62107;BMP280;48087;32.600;-97.100;2022-09-16T21:17:53;;;;35.610755
62107;BMP280;48087;32.600;-97.100;2022-09-16T21:22:56;;;;35.77742
62107;BMP280;48087;32.600;-97.100;2022-09-16T21:28:01;;;;35.944085
62107;BMP280;48087;32.600;-97.100;2022-09-16T21:33:05;;;;35.277425
62107;BMP280;48087;32.600;-97.100;2022-09-16T21:38:10;;;;35.055204999999994
62107;BMP280;48087;32.600;-97.100;2022-09-16T21:43:12;;;;35.11076
62107;BMP280;48087;32.600;-97.100;2022-09-16T21:48:17;;;;35.888529999999996
62107;BMP280;48087;32.600;-97.100;2022-09-16T21:53:20;;;;34.66632
62107;BMP280;48087;32.600;-97.100;2022-09-16T21:58:25;;;;35.11076
62107;BMP280;48087;32.600;-97.100;2022-09-16T22:03:28;;;;34.88854
62107;BMP280;48087;32.600;-97.100;2022-09-16T22:08:33;;;;35.77742
62107;BMP280;48087;32.600;-97.100;2022-09-16T22:13:37;;;;36.22186
62107;BMP280;48087;32.600;-97.100;2022-09-16T22:18:41;;;;36.166304999999994
62107;BMP280;48087;32.600;-97.100;2022-09-16T22:23:44;;;;35.77742
62107;BMP280;48087;32.600;-97.100;2022-09-16T22:28:49;;;;36.277415
62107;BMP280;48087;32.600;-97.100;2022-09-16T22:33:53;;;;36.22186
62107;BMP280;48087;32.600;-97.100;2022-09-16T22:38:58;;;;35.444089999999996
62107;BMP280;48087;32.600;-97.100;2022-09-16T22:44:00;;;;35.944085
62107;BMP280;48087;32.600;-97.100;2022-09-16T22:49:06;;;;36.055195000000005
62107;BMP280;48087;32.600;-97.100;2022-09-16T22:54:09;;;;36.22186
62107;BMP280;48087;32.600;-97.100;2022-09-16T22:59:15;;;;36.055195000000005
62107;BMP280;48087;32.600;-97.100;2022-09-16T23:04:16;;;;35.99964
62107;BMP280;48087;32.600;-97.100;2022-09-16T23:09:21;;;;34.88854
62107;BMP280;48087;32.600;-97.100;2022-09-16T23:14:24;;;;34.277435000000004
62107;BMP280;48087;32.600;-97.100;2022-09-16T23:19:29;;;;34.277435000000004
62107;BMP280;48087;32.600;-97.100;2022-09-16T23:24:32;;;;34.22188
62107;BMP280;48087;32.600;-97.100;2022-09-16T23:29:38;;;;34.166325
62107;BMP280;48087;32.600;-97.100;2022-09-16T23:34:40;;;;34.22188
62107;BMP280;48087;32.600;-97.100;2022-09-16T23:39:45;;;;34.166325
62107;BMP280;48087;32.600;-97.100;2022-09-16T23:44:48;;;;33.94410499999999
62107;BMP280;48087;32.600;-97.100;2022-09-16T23:49:53;;;;33.77744
62107;BMP280;48087;32.600;-97.100;2022-09-16T23:54:56;;;;32.944115
